Time;durP1;ratioP1;P1;durP2;ratioP2;P2;SDS_P1;SDS_P2;PMS_P1;PMS_P2;Temp;Humidity;BMP_temperature;BMP_pressure;BME280_temperature;BME280_humidity;BME280_pressure;Samples;Min_cycle;Max_cycle;Signal;HPM_P1;HPM_P2
2021/07/12 05:16:34;;;;;;;6.20;5.63;;;15.00;99.90;;;;;;6100529;23;20938;-80
2021/07/12 05:19:01;;;;;;;6.47;5.97;;;15.10;99.90;;;;;;6103046;23;20410;-81
2021/07/12 05:21:28;;;;;;;5.97;5.43;;;15.20;99.90;;;;;;6102351;23;20420;-80
2021/07/12 05:23:55;;;;;;;6.87;6.27;;;15.20;99.90;;;;;;6102819;23;20418;-80
2021/07/12 05:26:22;;;;;;;8.47;6.40;;;15.30;99.90;;;;;;6102865;23;20466;-80
2021/07/12 05:28:49;;;;;;;6.40;5.80;;;15.40;99.90;;;;;;6102711;23;20416;-80
2021/07/12 05:31:16;;;;;;;7.73;6.93;;;15.50;99.90;;;;;;6102700;23;20413;-80
2021/07/12 05:33:47;;;;;;;6.77;5.33;;;15.50;99.90;;;;;;6102188;23;20436;-79
2021/07/12 05:36:13;;;;;;;5.97;5.43;;;15.60;99.90;;;;;;6101165;23;20429;-79
2021/07/12 05:38:40;;;;;;;6.63;6.00;;;15.60;99.90;;;;;;6102082;23;20513;-80
2021/07/12 05:41:07;;;;;;;6.30;5.80;;;15.70;99.90;;;;;;6101891;23;20431;-80
2021/07/12 05:43:34;;;;;;;7.63;5.83;;;15.80;99.90;;;;;;6101241;23;20409;-80
2021/07/12 05:46:01;;;;;;;6.20;5.70;;;15.80;99.90;;;;;;6100680;23;20435;-80
2021/07/12 05:48:27;;;;;;;5.90;5.27;;;15.80;99.90;;;;;;6101392;23;20914;-80
2021/07/12 05:50:56;;;;;;;6.23;5.73;;;15.90;99.90;;;;;;6100667;23;20900;-80
2021/07/12 05:53:22;;;;;;;6.70;6.10;;;16.00;99.90;;;;;;6100926;23;20426;-79
2021/07/12 05:55:49;;;;;;;5.20;4.80;;;16.20;99.90;;;;;;6102663;23;20456;-80
2021/07/12 05:58:16;;;;;;;12.50;5.73;;;16.20;99.90;;;;;;6103310;23;20445;-81
2021/07/12 06:00:43;;;;;;;5.03;4.53;;;16.30;99.90;;;;;;6101972;23;20426;-80
2021/07/12 06:03:10;;;;;;;4.77;4.40;;;16.40;99.90;;;;;;6099367;23;20408;-80
2021/07/12 06:05:37;;;;;;;4.67;4.37;;;16.50;99.90;;;;;;6098129;23;20438;-80
2021/07/12 06:08:06;;;;;;;4.83;4.30;;;16.60;99.90;;;;;;6098214;23;20441;-80
2021/07/12 06:10:32;;;;;;;4.33;3.93;;;16.70;99.90;;;;;;6101017;23;20418;-82
2021/07/12 06:13:00;;;;;;;4.40;4.10;;;16.90;99.90;;;;;;6099670;23;20906;-80
2021/07/12 06:15:26;;;;;;;5.60;5.10;;;17.00;99.90;;;;;;6084379;23;20759;-80
2021/07/12 06:17:53;;;;;;;4.30;4.00;;;17.20;99.90;;;;;;6071056;23;20454;-81
2021/07/12 06:20:20;;;;;;;4.03;3.73;;;17.30;99.90;;;;;;6070972;23;20412;-80
2021/07/12 06:22:48;;;;;;;3.53;3.23;;;17.40;99.90;;;;;;6070301;23;21019;-81
2021/07/12 06:25:18;;;;;;;4.23;3.93;;;17.50;99.90;;;;;;6071248;23;20439;-81
2021/07/12 06:27:46;;;;;;;4.83;4.43;;;17.70;99.90;;;;;;6071418;23;20409;-80
2021/07/12 06:30:14;;;;;;;4.20;3.90;;;17.80;99.90;;;;;;6070598;23;20503;-80
2021/07/12 06:32:41;;;;;;;3.60;3.27;;;17.90;99.90;;;;;;6069583;23;20799;-80
2021/07/12 06:35:10;;;;;;;4.23;3.83;;;17.90;99.90;;;;;;6072316;23;20432;-80
2021/07/12 06:37:37;;;;;;;4.47;4.07;;;18.10;99.90;;;;;;6071979;23;20527;-81
2021/07/12 06:40:04;;;;;;;3.60;3.40;;;18.10;99.90;;;;;;6072655;23;20420;-81
2021/07/12 06:42:32;;;;;;;3.50;3.20;;;18.20;99.90;;;;;;6072885;23;20438;-81
2021/07/12 06:44:59;;;;;;;3.30;2.90;;;18.30;99.90;;;;;;6072749;23;20444;-81
2021/07/12 06:47:27;;;;;;;3.60;3.40;;;18.50;99.90;;;;;;6071326;23;20420;-80
2021/07/12 06:49:54;;;;;;;4.63;3.47;;;18.60;99.90;;;;;;6071206;23;20452;-80
2021/07/12 06:52:21;;;;;;;5.73;3.93;;;18.70;99.90;;;;;;6070514;23;20420;-80
2021/07/12 06:54:48;;;;;;;3.90;3.57;;;18.90;99.90;;;;;;6072531;23;20509;-81
2021/07/12 06:57:15;;;;;;;7.73;3.73;;;19.10;99.90;;;;;;6072125;23;20441;-80
2021/07/12 06:59:44;;;;;;;3.43;3.20;;;19.20;99.90;;;;;;6074420;23;20421;-79
2021/07/12 07:02:11;;;;;;;3.30;2.97;;;19.30;99.90;;;;;;6074416;23;20479;-79
2021/07/12 07:04:38;;;;;;;5.93;3.63;;;19.50;99.90;;;;;;6075404;23;20486;-79
2021/07/12 07:07:05;;;;;;;2.80;2.60;;;19.70;99.90;;;;;;6074526;23;20425;-80
2021/07/12 07:09:32;;;;;;;4.40;3.40;;;19.90;99.90;;;;;;6073972;23;20759;-81
2021/07/12 07:11:59;;;;;;;3.20;2.90;;;20.00;99.90;;;;;;6074004;23;20864;-83
2021/07/12 07:14:26;;;;;;;2.73;2.50;;;20.30;99.90;;;;;;6070329;23;20443;-83
2021/07/12 07:16:54;;;;;;;3.27;2.57;;;20.40;99.90;;;;;;6074813;23;20404;-81
2021/07/12 07:19:21;;;;;;;2.70;2.50;;;20.60;99.90;;;;;;6074147;23;20413;-81
2021/07/12 07:21:52;;;;;;;3.57;3.10;;;20.70;99.90;;;;;;6071296;23;20421;-81
2021/07/12 07:24:19;;;;;;;2.73;2.50;;;20.90;99.90;;;;;;6074804;23;20404;-81
2021/07/12 07:26:45;;;;;;;2.10;2.00;;;21.00;99.90;;;;;;6076340;23;21018;-81
2021/07/12 07:29:12;;;;;;;3.07;2.80;;;21.10;99.90;;;;;;6074971;23;20406;-83
2021/07/12 07:31:39;;;;;;;3.03;2.40;;;21.20;99.90;;;;;;6075615;23;20455;-83
2021/07/12 07:34:08;;;;;;;3.73;2.20;;;21.30;99.90;;;;;;6077050;23;20425;-84
2021/07/12 07:36:34;;;;;;;3.13;2.90;;;21.30;99.90;;;;;;6075866;23;20418;-83
2021/07/12 07:39:01;;;;;;;2.87;2.30;;;21.30;99.90;;;;;;6075270;23;20674;-83
2021/07/12 07:41:28;;;;;;;3.00;2.60;;;21.30;99.90;;;;;;6075448;23;20429;-83
2021/07/12 07:43:55;;;;;;;2.40;2.30;;;21.40;99.90;;;;;;6074616;23;20410;-82
2021/07/12 07:46:21;;;;;;;3.73;3.00;;;21.40;99.90;;;;;;6076296;23;20440;-83
2021/07/12 07:48:48;;;;;;;5.17;2.93;;;21.40;99.90;;;;;;6074505;23;20437;-82
2021/07/12 07:51:17;;;;;;;7.63;4.23;;;21.40;99.90;;;;;;6075851;23;20413;-84
2021/07/12 07:53:44;;;;;;;3.23;2.80;;;21.50;99.90;;;;;;6073900;23;20403;-82
2021/07/12 07:56:10;;;;;;;4.60;4.20;;;21.50;99.90;;;;;;6077582;23;20437;-84
2021/07/12 07:58:37;;;;;;;4.43;3.30;;;21.50;99.90;;;;;;6078169;23;20452;-83
2021/07/12 08:01:04;;;;;;;9.47;4.00;;;21.50;99.90;;;;;;6076574;23;20733;-82
2021/07/12 08:03:30;;;;;;;2.63;2.43;;;21.60;99.90;;;;;;6075747;23;20407;-83
2021/07/12 08:05:57;;;;;;;4.50;3.77;;;21.60;99.90;;;;;;6075824;23;20436;-83
2021/07/12 08:08:25;;;;;;;4.17;3.50;;;21.70;99.90;;;;;;6076590;23;20416;-83
2021/07/12 08:10:53;;;;;;;3.33;3.03;;;21.70;99.90;;;;;;6076857;23;20739;-83
2021/07/12 08:13:19;;;;;;;3.20;2.90;;;21.70;99.90;;;;;;6076175;23;20439;-84
2021/07/12 08:15:46;;;;;;;3.30;3.00;;;21.80;99.90;;;;;;6076896;23;20443;-83
2021/07/12 08:18:14;;;;;;;3.13;2.90;;;21.80;99.90;;;;;;6077762;23;20780;-83
2021/07/12 08:20:45;;;;;;;2.70;2.50;;;21.80;99.90;;;;;;6076541;23;20760;-83
2021/07/12 08:23:13;;;;;;;5.17;2.67;;;21.90;99.90;;;;;;6074853;23;20404;-83
2021/07/12 08:25:42;;;;;;;3.13;2.50;;;22.00;99.90;;;;;;6074864;23;20466;-83
2021/07/12 08:28:09;;;;;;;2.50;2.30;;;22.10;99.90;;;;;;6075587;23;20415;-84
2021/07/12 08:30:35;;;;;;;2.70;2.50;;;22.20;99.90;;;;;;6075947;23;20412;-82
2021/07/12 08:33:02;;;;;;;2.37;2.17;;;22.20;99.90;;;;;;6075261;23;20400;-83
2021/07/12 08:35:29;;;;;;;5.43;2.70;;;22.30;99.90;;;;;;6076382;23;20436;-83
2021/07/12 08:37:56;;;;;;;2.70;2.10;;;22.40;99.90;;;;;;6075729;23;20448;-83
2021/07/12 08:40:24;;;;;;;2.20;2.10;;;22.40;99.90;;;;;;6074856;23;20938;-84
2021/07/12 08:42:54;;;;;;;3.93;2.73;;;22.50;99.90;;;;;;6073967;23;20422;-84
2021/07/12 08:45:21;;;;;;;2.30;2.20;;;22.50;99.90;;;;;;6073657;23;20775;-83
2021/07/12 08:47:48;;;;;;;2.00;1.60;;;22.50;99.90;;;;;;6075340;23;20405;-84
2021/07/12 08:50:16;;;;;;;2.00;1.90;;;22.60;99.90;;;;;;6075844;23;20428;-83
2021/07/12 08:52:44;;;;;;;2.70;2.50;;;22.60;99.90;;;;;;6075048;23;20490;-84
2021/07/12 08:55:11;;;;;;;2.73;1.80;;;22.70;99.90;;;;;;6076215;23;20505;-84
2021/07/12 08:57:38;;;;;;;3.03;2.07;;;22.80;99.90;;;;;;6075601;23;20461;-82
2021/07/12 09:00:09;;;;;;;2.63;1.90;;;22.80;99.90;;;;;;6072555;23;20531;-83
2021/07/12 09:02:37;;;;;;;1.90;1.80;;;23.00;99.90;;;;;;6074424;23;20404;-85
2021/07/12 09:05:08;;;;;;;2.00;1.80;;;23.10;99.90;;;;;;6072727;23;20445;-83
2021/07/12 09:07:36;;;;;;;2.37;2.17;;;23.10;99.90;;;;;;6074946;23;20397;-83
2021/07/12 09:10:05;;;;;;;2.70;2.20;;;23.10;99.90;;;;;;6075877;23;20417;-83
2021/07/12 09:12:40;;;;;;;4.10;2.50;;;23.20;99.90;;;;;;6075737;23;20419;-83
2021/07/12 09:15:11;;;;;;;2.47;2.30;;;23.40;99.90;;;;;;6073201;23;20444;-83
2021/07/12 09:17:39;;;;;;;3.00;2.80;;;23.50;99.90;;;;;;6072185;23;20405;-83
2021/07/12 09:20:08;;;;;;;4.90;4.47;;;23.60;99.90;;;;;;6068243;23;20410;-83
2021/07/12 09:22:37;;;;;;;3.70;2.80;;;23.80;99.90;;;;;;6076071;23;20412;-83
2021/07/12 09:25:08;;;;;;;6.13;4.30;;;23.80;99.90;;;;;;6067654;23;20433;-82
2021/07/12 09:27:37;;;;;;;4.70;3.47;;;23.90;99.90;;;;;;6066847;23;20477;-82
2021/07/12 09:30:07;;;;;;;2.70;2.50;;;24.00;99.50;;;;;;6071608;23;20468;-82
2021/07/12 09:32:36;;;;;;;23.30;15.80;;;24.10;99.00;;;;;;6071977;23;20425;-82
2021/07/12 09:35:06;;;;;;;2.57;2.37;;;24.10;99.50;;;;;;6069329;23;20434;-83
2021/07/12 09:38:01;;;;;;;1.70;1.60;;;24.10;98.80;;;;;;6066430;23;20449;-84
2021/07/12 09:40:29;;;;;;;2.87;2.17;;;24.30;98.30;;;;;;6064534;23;20851;-84
2021/07/12 09:42:56;;;;;;;2.23;1.70;;;24.40;97.60;;;;;;6066648;23;20490;-82
2021/07/12 09:45:28;;;;;;;2.90;2.10;;;24.50;97.70;;;;;;6066895;23;20440;-84
2021/07/12 09:48:05;;;;;;;2.07;1.97;;;24.60;98.60;;;;;;6067982;23;20401;-87
2021/07/12 09:50:32;;;;;;;3.27;1.80;;;24.80;97.40;;;;;;6068095;23;20402;-85
2021/07/12 09:53:03;;;;;;;1.93;1.83;;;24.90;98.90;;;;;;6067537;23;20410;-84
2021/07/12 09:55:32;;;;;;;2.13;2.03;;;25.20;98.40;;;;;;6068114;23;20438;-84
2021/07/12 09:58:08;;;;;;;2.13;1.90;;;25.40;98.20;;;;;;6067845;23;20452;-83
2021/07/12 10:00:35;;;;;;;1.73;1.60;;;25.60;95.80;;;;;;6075633;23;20406;-82
2021/07/12 10:03:05;;;;;;;2.10;1.67;;;25.80;95.90;;;;;;6070778;23;20416;-83
2021/07/12 10:05:32;;;;;;;2.50;2.30;;;26.00;95.40;;;;;;6067374;23;20436;-84
2021/07/12 10:07:59;;;;;;;2.40;2.17;;;26.30;93.90;;;;;;6067596;23;20416;-83
2021/07/12 10:10:26;;;;;;;2.30;2.10;;;26.50;93.50;;;;;;6067769;23;20420;-84
2021/07/12 10:12:54;;;;;;;3.13;1.70;;;26.80;93.40;;;;;;6067292;23;20735;-83
2021/07/12 10:15:21;;;;;;;2.03;1.80;;;27.10;93.60;;;;;;6067252;23;20781;-84
2021/07/12 10:17:48;;;;;;;2.10;2.00;;;27.40;93.20;;;;;;6067445;23;20428;-83
2021/07/12 10:20:17;;;;;;;1.80;1.70;;;27.70;93.10;;;;;;6067491;23;20410;-83
2021/07/12 10:22:44;;;;;;;2.10;1.90;;;28.00;91.90;;;;;;6067163;23;20411;-84
2021/07/12 10:25:14;;;;;;;2.40;2.20;;;28.20;89.90;;;;;;6067565;23;20468;-84
2021/07/12 10:27:49;;;;;;;2.07;1.97;;;28.40;90.30;;;;;;6067008;23;20420;-83
2021/07/12 10:30:26;;;;;;;1.77;1.67;;;28.50;89.40;;;;;;6067521;23;20411;-83
2021/07/12 10:32:55;;;;;;;2.27;2.07;;;28.50;86.40;;;;;;6067230;23;20401;-83
2021/07/12 10:35:37;;;;;;;2.70;1.70;;;28.60;86.00;;;;;;6067167;23;20435;-83
2021/07/12 10:38:04;;;;;;;1.40;1.30;;;28.70;88.20;;;;;;6067245;23;20402;-83
2021/07/12 10:40:46;;;;;;;1.80;1.70;;;28.90;90.00;;;;;;6067301;23;20413;-83
2021/07/12 10:43:12;;;;;;;2.17;1.97;;;29.10;89.60;;;;;;6067075;23;20396;-83
2021/07/12 10:45:44;;;;;;;2.70;2.50;;;29.20;87.70;;;;;;6067193;23;20425;-84
2021/07/12 10:48:16;;;;;;;1.57;1.47;;;29.30;87.10;;;;;;6067380;23;20394;-83
2021/07/12 10:50:53;;;;;;;2.00;1.90;;;29.50;86.50;;;;;;6067125;23;20416;-83
2021/07/12 10:53:37;;;;;;;2.50;1.77;;;29.70;84.40;;;;;;6066938;23;20395;-83
2021/07/12 10:56:07;;;;;;;2.03;1.77;;;29.70;84.80;;;;;;6067044;23;20429;-84
2021/07/12 10:58:44;;;;;;;1.80;1.70;;;29.70;82.70;;;;;;6066764;23;20439;-84
2021/07/12 11:01:17;;;;;;;2.10;1.90;;;29.70;81.50;;;;;;6066887;23;20397;-84
2021/07/12 11:03:46;;;;;;;2.07;1.97;;;29.60;80.60;;;;;;6067147;23;20481;-84
2021/07/12 11:06:16;;;;;;;2.00;1.73;;;29.40;81.00;;;;;;6066768;23;20437;-84
2021/07/12 11:08:43;;;;;;;1.80;1.70;;;29.40;81.40;;;;;;6067490;23;20417;-83
2021/07/12 11:11:11;;;;;;;2.00;1.80;;;29.40;79.40;;;;;;6067176;23;20416;-84
2021/07/12 11:13:52;;;;;;;2.40;2.20;;;29.60;81.80;;;;;;6066821;23;20417;-84
2021/07/12 14:30:08;;;;;;;2.40;2.13;;;36.60;48.50;;;;;;5849017;24;20805;-84
2021/07/12 14:43:06;;;;;;;2.87;2.67;;;40.30;45.80;;;;;;5815942;24;20456;-84
2021/07/12 15:43:14;;;;;;;;;;;;;;;;;;;;;
2021/07/12 16:08:20;;;;;;;2.83;2.63;;;33.80;56.30;;;;;;5821354;24;20432;-84
2021/07/12 16:11:44;;;;;;;;;;;;;;;;;;;;;
2021/07/12 16:14:41;;;;;;;3.40;3.20;;;33.50;56.60;;;;;;5904524;24;20514;-84
2021/07/12 16:24:17;;;;;;;;;;;;;;;;;;;;;
2021/07/12 16:33:39;;;;;;;3.57;3.10;;;31.80;60.30;;;;;;5859579;24;20421;-84
2021/07/12 16:36:20;;;;;;;;;;;;;;;;;;;;;
2021/07/12 16:51:19;;;;;;;3.53;3.27;;;31.80;61.90;;;;;;5835412;24;20466;-84
2021/07/12 16:53:53;;;;;;;2.53;2.33;;;31.70;61.50;;;;;;5894594;24;20416;-83
2021/07/12 16:56:25;;;;;;;3.20;3.00;;;31.50;60.90;;;;;;5999137;23;20430;-84
2021/07/12 16:58:52;;;;;;;3.80;3.10;;;31.40;62.00;;;;;;6048745;23;20425;-83
2021/07/12 17:21:56;;;;;;;2.40;2.20;;;31.50;63.10;;;;;;5801687;24;20546;-84
2021/07/12 18:24:50;;;;;;;2.50;2.30;;;31.80;60.60;;;;;;5979078;23;20453;-84
